createdAt,value
2023-01-04T00:00:00.998Z,3.40
2023-01-04T00:02:29.945Z,2.60
2023-01-04T00:04:58.420Z,3.50
2023-01-04T00:07:26.759Z,3.30
2023-01-04T00:09:55.132Z,3.43
2023-01-04T00:12:23.746Z,2.90
2023-01-04T00:14:53.531Z,2.90
2023-01-04T00:17:21.867Z,3.03
2023-01-04T00:19:50.215Z,3.00
2023-01-04T00:22:18.612Z,3.50
2023-01-04T00:24:47.460Z,3.00
2023-01-04T00:27:15.799Z,3.00
2023-01-04T00:29:44.087Z,2.40
2023-01-04T00:32:14.242Z,3.10
2023-01-04T00:34:42.583Z,3.00
2023-01-04T00:37:11.148Z,2.50
2023-01-04T00:39:39.460Z,3.77
2023-01-04T00:42:07.740Z,3.90
2023-01-04T00:44:36.775Z,3.40
2023-01-04T00:47:06.210Z,3.60
2023-01-04T00:49:36.547Z,3.10
2023-01-04T00:52:05.274Z,3.07
2023-01-04T00:54:33.470Z,3.50
2023-01-04T00:57:01.926Z,4.10
2023-01-04T00:59:30.449Z,3.83
2023-01-04T01:01:59.080Z,3.90
2023-01-04T01:04:27.681Z,3.70
2023-01-04T01:06:57.459Z,3.20
2023-01-04T01:09:26.187Z,3.40
2023-01-04T01:11:55.463Z,3.20
2023-01-04T01:14:26.931Z,3.60
2023-01-04T01:16:58.442Z,3.03
2023-01-04T01:19:28.952Z,4.50
2023-01-04T01:21:59.346Z,5.27
2023-01-04T01:24:28.409Z,6.20
2023-01-04T01:26:57.146Z,7.10
2023-01-04T01:29:25.871Z,7.60
2023-01-04T01:31:54.485Z,10.83
2023-01-04T01:34:22.902Z,13.40
2023-01-04T01:36:51.410Z,14.27
2023-01-04T01:39:21.928Z,14.50
2023-01-04T01:41:50.540Z,14.43
2023-01-04T01:44:59.611Z,16.23
2023-01-04T01:47:36.719Z,14.67
2023-01-04T01:50:07.241Z,13.73
2023-01-04T01:52:41.746Z,14.63
2023-01-04T01:55:13.097Z,14.30
2023-01-04T01:57:42.645Z,14.17
2023-01-04T02:00:13.773Z,12.10
2023-01-04T02:02:51.175Z,9.40
2023-01-04T02:05:21.680Z,9.00
2023-01-04T02:07:51.025Z,7.30
2023-01-04T02:10:20.907Z,6.13
2023-01-04T02:12:51.653Z,6.60
2023-01-04T02:15:20.716Z,4.77
2023-01-04T02:17:57.709Z,4.90
2023-01-04T02:20:36.296Z,4.70
2023-01-04T02:23:33.690Z,4.03
2023-01-04T02:26:38.845Z,3.67
2023-01-04T02:29:42.953Z,4.40
2023-01-04T02:32:15.931Z,3.97
2023-01-04T02:34:56.461Z,3.70
2023-01-04T02:37:32.463Z,3.90
2023-01-04T02:40:09.084Z,2.67
2023-01-04T02:43:02.723Z,2.60
2023-01-04T02:45:40.320Z,3.10
2023-01-04T02:48:27.656Z,3.40
2023-01-04T02:50:58.023Z,2.83
2023-01-04T02:53:30.833Z,2.50
2023-01-04T02:56:10.708Z,2.47
2023-01-04T02:58:54.429Z,2.93
2023-01-04T03:01:52.042Z,2.30
2023-01-04T03:04:51.812Z,2.60
2023-01-04T03:07:28.005Z,2.63
2023-01-04T03:10:04.041Z,2.43
2023-01-04T03:12:38.896Z,2.63
2023-01-04T03:15:13.827Z,3.13
2023-01-04T03:17:46.697Z,2.27
2023-01-04T03:20:20.179Z,2.50
2023-01-04T03:23:10.896Z,2.90
2023-01-04T03:26:03.250Z,2.30
2023-01-04T03:28:52.293Z,2.33
2023-01-04T03:31:43.447Z,2.27
2023-01-04T03:34:29.580Z,2.33
2023-01-04T03:37:08.740Z,2.57
2023-01-04T03:40:05.589Z,2.30
2023-01-04T03:43:00.973Z,2.93
2023-01-04T03:45:51.592Z,2.63
2023-01-04T03:48:34.615Z,4.20
2023-01-04T03:51:15.899Z,2.47
2023-01-04T03:54:04.149Z,2.80
2023-01-04T03:56:34.164Z,2.40
2023-01-04T03:59:02.985Z,2.20
2023-01-04T04:01:31.800Z,2.77
2023-01-04T04:04:17.344Z,2.20
2023-01-04T04:07:02.997Z,2.27
2023-01-04T04:09:32.815Z,2.43
2023-01-04T04:12:01.049Z,2.33
2023-01-04T04:14:29.623Z,2.30
2023-01-04T04:16:58.011Z,2.13
2023-01-04T04:19:26.445Z,2.33
2023-01-04T04:21:55.046Z,2.20
2023-01-04T04:24:25.407Z,2.67
2023-01-04T04:26:56.535Z,1.77
2023-01-04T04:29:26.065Z,2.10
2023-01-04T04:31:54.580Z,1.90
2023-01-04T04:34:22.812Z,1.50
2023-01-04T04:36:51.127Z,1.70
2023-01-04T04:39:19.408Z,1.83
2023-01-04T04:41:46.747Z,2.17
2023-01-04T04:44:18.910Z,1.50
2023-01-04T04:46:48.866Z,1.83
2023-01-04T04:49:18.159Z,1.20
2023-01-04T04:51:47.172Z,1.80
2023-01-04T04:54:18.152Z,1.50
2023-01-04T04:56:47.467Z,1.20
2023-01-04T04:59:17.636Z,1.47
2023-01-04T05:01:46.067Z,1.53
2023-01-04T05:04:19.802Z,1.53
2023-01-04T05:06:49.713Z,1.80
2023-01-04T05:09:18.824Z,1.37
2023-01-04T05:12:04.794Z,1.30
2023-01-04T05:14:34.627Z,1.20
2023-01-04T05:17:02.985Z,1.60
2023-01-04T05:19:31.523Z,1.27
2023-01-04T05:21:59.885Z,1.30
2023-01-04T05:24:28.312Z,1.10
2023-01-04T05:26:56.691Z,1.67
2023-01-04T05:29:42.209Z,1.20
2023-01-04T05:32:12.144Z,1.20
2023-01-04T05:34:40.578Z,1.43
2023-01-04T05:37:08.830Z,1.30
2023-01-04T05:39:37.689Z,1.47
2023-01-04T05:42:23.390Z,1.17
2023-01-04T05:44:51.825Z,1.20
2023-01-04T05:47:21.684Z,1.30
2023-01-04T05:49:50.066Z,1.23
2023-01-04T05:52:18.745Z,1.87
2023-01-04T05:54:47.116Z,1.40
2023-01-04T05:57:16.375Z,1.10
2023-01-04T05:59:44.862Z,1.37
2023-01-04T06:02:18.349Z,1.33
2023-01-04T06:04:54.707Z,1.57
2023-01-04T06:07:26.772Z,1.60
2023-01-04T06:09:55.149Z,1.30
2023-01-04T06:12:23.457Z,1.50
2023-01-04T06:14:51.713Z,1.80
2023-01-04T06:17:20.593Z,1.50
2023-01-04T06:19:52.291Z,1.53
2023-01-04T06:22:21.544Z,1.50
2023-01-04T06:24:49.822Z,1.30
2023-01-04T06:27:18.108Z,1.00
2023-01-04T06:29:46.451Z,1.60
2023-01-04T06:32:14.624Z,1.03
2023-01-04T06:34:43.069Z,1.00
2023-01-04T06:37:12.871Z,1.40
2023-01-04T06:39:41.369Z,1.20
2023-01-04T06:42:30.955Z,1.40
2023-01-04T06:44:59.412Z,1.57
2023-01-04T06:47:27.717Z,1.40
2023-01-04T06:49:56.265Z,1.20
2023-01-04T06:52:25.908Z,1.10
2023-01-04T06:54:54.058Z,1.43
2023-01-04T06:57:22.379Z,1.20
2023-01-04T06:59:50.643Z,1.10
2023-01-04T07:02:19.343Z,1.70
2023-01-04T07:04:47.830Z,1.60
2023-01-04T07:07:16.135Z,1.20
2023-01-04T07:09:46.245Z,1.07
2023-01-04T07:12:14.672Z,1.33
2023-01-04T07:14:43.103Z,0.80
2023-01-04T07:17:11.435Z,1.00
2023-01-04T07:19:39.924Z,1.00
2023-01-04T07:22:08.458Z,1.37
2023-01-04T07:24:36.934Z,1.07
2023-01-04T07:27:06.628Z,1.67
2023-01-04T07:29:34.979Z,0.90
2023-01-04T07:32:06.584Z,1.10
2023-01-04T07:34:38.441Z,1.10
2023-01-04T07:37:09.269Z,0.90
2023-01-04T07:39:37.506Z,2.93
2023-01-04T07:42:07.063Z,1.40
2023-01-04T07:44:35.281Z,0.97
2023-01-04T07:47:04.077Z,1.23
2023-01-04T07:49:32.324Z,1.00
2023-01-04T07:52:00.521Z,1.20
2023-01-04T07:54:29.971Z,1.47
2023-01-04T07:56:58.216Z,3.60
2023-01-04T07:59:28.013Z,7.73
2023-01-04T08:01:56.262Z,2.30
2023-01-04T08:04:31.134Z,1.00
2023-01-04T08:07:02.714Z,1.30
2023-01-04T08:09:30.943Z,2.40
2023-01-04T08:11:59.070Z,1.57
2023-01-04T08:14:28.890Z,1.13
2023-01-04T08:16:57.691Z,0.93
2023-01-04T08:19:25.849Z,1.17
2023-01-04T08:21:54.049Z,1.00
2023-01-04T08:24:22.304Z,0.83
2023-01-04T08:26:50.512Z,0.80
2023-01-04T08:29:18.656Z,1.10
2023-01-04T08:31:48.442Z,0.93
2023-01-04T08:34:16.873Z,0.97
2023-01-04T08:36:49.671Z,1.47
2023-01-04T08:39:18.229Z,1.30
2023-01-04T08:41:58.767Z,1.40
2023-01-04T08:44:29.359Z,1.00
2023-01-04T08:46:59.414Z,1.57
2023-01-04T08:49:27.998Z,1.70
2023-01-04T08:51:56.513Z,1.00
2023-01-04T08:54:24.625Z,1.67
2023-01-04T08:56:53.141Z,1.60
2023-01-04T08:59:21.665Z,1.60
2023-01-04T09:01:50.327Z,1.80
2023-01-04T09:04:20.114Z,2.03
2023-01-04T09:06:48.438Z,2.00
2023-01-04T09:09:16.909Z,1.50
2023-01-04T09:11:45.133Z,1.83
2023-01-04T09:14:14.062Z,1.60
2023-01-04T09:16:42.561Z,1.40
2023-01-04T09:19:12.242Z,1.20
2023-01-04T09:21:43.623Z,1.10
2023-01-04T09:24:11.960Z,1.20
2023-01-04T09:26:40.563Z,1.17
2023-01-04T09:29:12.036Z,1.00
2023-01-04T09:31:40.488Z,1.40
2023-01-04T09:34:17.644Z,1.00
2023-01-04T09:36:49.398Z,0.90
2023-01-04T09:39:23.035Z,0.80
2023-01-04T09:41:58.866Z,1.10
2023-01-04T09:45:21.532Z,1.47
2023-01-04T09:47:34.248Z,0.97
2023-01-04T09:50:06.702Z,1.10
2023-01-04T09:52:47.813Z,1.20
2023-01-04T09:55:36.956Z,0.80
2023-01-04T09:58:19.060Z,0.97
2023-01-04T10:00:50.788Z,1.07
2023-01-04T10:03:23.169Z,1.20
2023-01-04T10:05:52.287Z,1.10
2023-01-04T10:08:22.323Z,0.90
2023-01-04T10:10:59.206Z,1.10
2023-01-04T10:13:38.077Z,0.77
2023-01-04T10:16:17.694Z,1.37
2023-01-04T10:19:51.041Z,1.50
2023-01-04T10:21:54.509Z,1.20
2023-01-04T10:24:39.679Z,1.07
2023-01-04T10:27:11.387Z,1.53
2023-01-04T10:29:55.445Z,2.30
2023-01-04T10:32:33.776Z,1.23
2023-01-04T10:35:02.701Z,1.50
2023-01-04T10:37:34.921Z,1.67
2023-01-04T10:40:13.245Z,1.00
2023-01-04T10:42:49.580Z,1.20
2023-01-04T10:45:20.926Z,1.33
2023-01-04T10:47:58.777Z,1.20
2023-01-04T10:50:32.008Z,1.10
2023-01-04T10:53:05.123Z,1.10
2023-01-04T10:55:41.921Z,1.33
2023-01-04T10:58:35.739Z,1.50
2023-01-04T11:01:09.890Z,1.43
2023-01-04T11:03:43.958Z,1.00
2023-01-04T11:06:17.354Z,0.90
2023-01-04T11:08:51.398Z,1.83
2023-01-04T11:11:26.840Z,1.00
2023-01-04T11:13:55.495Z,1.23
2023-01-04T11:16:23.782Z,1.17
2023-01-04T11:18:52.473Z,1.40
2023-01-04T11:21:27.710Z,1.50
2023-01-04T11:24:08.248Z,1.20
2023-01-04T11:26:51.677Z,1.10
2023-01-04T11:29:31.212Z,0.83
2023-01-04T11:32:03.759Z,1.00
2023-01-04T11:34:54.370Z,1.93
2023-01-04T11:37:28.670Z,1.10
2023-01-04T11:40:19.137Z,1.00
2023-01-04T11:42:50.924Z,1.43
2023-01-04T11:45:22.499Z,1.47
2023-01-04T11:47:53.155Z,1.00
2023-01-04T11:50:41.305Z,0.90
2023-01-04T11:53:26.922Z,1.57
2023-01-04T11:56:11.540Z,1.50
2023-01-04T11:58:42.021Z,1.13
2023-01-04T12:01:22.222Z,0.93
2023-01-04T12:03:51.042Z,1.10
2023-01-04T12:06:22.060Z,1.17
2023-01-04T12:08:50.329Z,1.33
2023-01-04T12:11:25.504Z,1.17
2023-01-04T12:13:55.083Z,1.30
2023-01-04T12:16:36.251Z,1.47
2023-01-04T12:19:05.830Z,1.30
2023-01-04T12:21:37.732Z,1.40
2023-01-04T12:24:08.282Z,1.30
2023-01-04T12:26:43.465Z,1.23
2023-01-04T12:29:42.269Z,1.30
2023-01-04T12:32:42.829Z,1.40
2023-01-04T12:36:13.535Z,1.70
2023-01-04T12:39:07.332Z,1.53
2023-01-04T12:42:15.874Z,1.10
2023-01-04T12:45:19.795Z,1.10
2023-01-04T12:48:10.278Z,1.10
2023-01-04T12:51:37.383Z,1.20
2023-01-04T12:54:31.922Z,1.30
2023-01-04T12:57:24.734Z,1.40
2023-01-04T12:59:58.775Z,1.53
2023-01-04T13:02:29.717Z,1.17
2023-01-04T13:05:43.642Z,1.20
2023-01-04T13:07:50.578Z,1.00
2023-01-04T13:10:23.120Z,1.10
2023-01-04T13:13:14.092Z,1.17
2023-01-04T13:15:55.549Z,1.83
2023-01-04T13:18:37.589Z,1.43
2023-01-04T13:21:12.852Z,1.33
2023-01-04T13:23:46.987Z,1.30
2023-01-04T13:26:41.974Z,1.33
2023-01-04T13:29:15.629Z,1.70
2023-01-04T13:31:49.971Z,1.30
2023-01-04T13:34:23.968Z,1.43
2023-01-04T13:37:14.708Z,1.40
2023-01-04T13:39:45.805Z,3.03
2023-01-04T13:42:23.069Z,1.73
2023-01-04T13:45:24.332Z,0.90
2023-01-04T13:47:56.763Z,1.43
2023-01-04T13:50:35.777Z,1.00
2023-01-04T13:53:08.122Z,1.30
2023-01-04T13:55:38.696Z,1.27
2023-01-04T13:58:16.620Z,1.20
2023-01-04T14:00:47.078Z,1.10
2023-01-04T14:03:26.235Z,0.80
2023-01-04T14:06:04.447Z,1.70
2023-01-04T14:08:38.701Z,1.10
2023-01-04T14:11:38.023Z,1.47
2023-01-04T14:14:16.633Z,2.20
2023-01-04T14:16:45.143Z,1.37
2023-01-04T14:19:40.379Z,0.97
2023-01-04T14:22:47.164Z,0.90
2023-01-04T14:25:44.835Z,1.70
2023-01-04T14:28:32.589Z,1.80
2023-01-04T14:31:27.432Z,1.37
2023-01-04T14:33:56.064Z,1.40
2023-01-04T14:36:28.283Z,1.00
2023-01-04T14:39:11.305Z,1.23
2023-01-04T14:41:43.403Z,1.20
2023-01-04T14:44:14.413Z,1.10
2023-01-04T14:46:46.799Z,0.93
2023-01-04T14:49:15.637Z,1.03
2023-01-04T14:51:45.958Z,1.20
2023-01-04T14:54:22.276Z,0.83
2023-01-04T14:56:55.324Z,0.80
2023-01-04T14:59:24.830Z,1.43
2023-01-04T15:01:53.621Z,1.20
2023-01-04T15:04:22.241Z,1.23
2023-01-04T15:06:53.619Z,0.87
2023-01-04T15:09:21.874Z,1.13
2023-01-04T15:11:50.056Z,0.80
2023-01-04T15:14:19.735Z,0.80
2023-01-04T15:16:48.006Z,1.10
2023-01-04T15:19:16.217Z,1.67
2023-01-04T15:21:44.457Z,1.47
2023-01-04T15:24:12.654Z,1.83
2023-01-04T15:26:41.099Z,0.97
2023-01-04T15:29:09.798Z,1.37
2023-01-04T15:31:41.725Z,1.50
2023-01-04T15:34:10.847Z,0.90
2023-01-04T15:36:41.137Z,1.10
2023-01-04T15:39:12.440Z,1.30
2023-01-04T15:41:57.908Z,1.17
2023-01-04T15:44:26.806Z,0.70
2023-01-04T15:46:59.613Z,1.40
2023-01-04T15:49:29.983Z,1.23
2023-01-04T15:51:58.543Z,0.80
2023-01-04T15:54:27.091Z,1.10
2023-01-04T15:56:55.546Z,1.67
2023-01-04T15:59:24.165Z,1.20
2023-01-04T16:01:52.528Z,1.27
2023-01-04T16:04:22.344Z,1.03
2023-01-04T16:06:50.779Z,1.43
2023-01-04T16:09:19.079Z,1.30
2023-01-04T16:12:01.215Z,1.30
2023-01-04T16:14:30.042Z,1.33
2023-01-04T16:16:58.351Z,1.20
2023-01-04T16:19:27.966Z,1.60
2023-01-04T16:21:56.200Z,1.20
2023-01-04T16:27:12.563Z,1.20
2023-01-04T16:29:40.763Z,0.90
2023-01-04T16:32:09.208Z,1.20
2023-01-04T16:34:39.052Z,1.00
2023-01-04T16:37:07.763Z,0.80
2023-01-04T16:42:24.927Z,1.20
2023-01-04T16:44:53.193Z,1.23
2023-01-04T16:47:21.710Z,1.27
2023-01-04T16:49:54.454Z,1.00
2023-01-04T16:52:26.691Z,0.93
2023-01-04T16:54:54.927Z,0.87
2023-01-04T16:57:23.947Z,1.00
2023-01-04T16:59:52.085Z,1.40
2023-01-04T17:02:20.338Z,0.83
2023-01-04T17:04:54.562Z,0.90
2023-01-04T17:07:24.252Z,1.20
2023-01-04T17:09:52.742Z,1.43
2023-01-04T17:17:59.675Z,1.17
2023-01-04T17:20:27.844Z,1.10
2023-01-04T17:22:57.638Z,1.10
2023-01-04T17:25:26.287Z,0.90
2023-01-04T17:27:54.548Z,1.33
2023-01-04T17:30:22.818Z,1.43
2023-01-04T17:32:51.255Z,2.07
2023-01-04T17:35:19.715Z,1.07
2023-01-04T17:37:48.080Z,1.00
2023-01-04T17:40:22.891Z,0.87
2023-01-04T17:42:52.125Z,1.60
2023-01-04T17:45:20.551Z,1.30
2023-01-04T17:47:49.151Z,1.70
2023-01-04T17:50:18.219Z,1.07
2023-01-04T17:52:47.574Z,1.00
2023-01-04T17:55:18.171Z,1.80
2023-01-04T17:57:46.888Z,1.40
2023-01-04T18:00:16.264Z,1.13
2023-01-04T18:02:45.070Z,1.67
2023-01-04T18:05:13.655Z,1.20
2023-01-04T18:07:41.899Z,1.53
2023-01-04T18:10:20.666Z,1.17
2023-01-04T18:12:50.477Z,1.37
2023-01-04T18:15:18.859Z,1.13
2023-01-04T18:17:47.129Z,1.40
2023-01-04T18:20:23.938Z,1.10
2023-01-04T18:22:53.017Z,1.17
2023-01-04T18:25:21.420Z,1.10
2023-01-04T18:27:51.502Z,1.40
2023-01-04T18:30:20.004Z,1.23
2023-01-04T18:32:48.468Z,2.73
2023-01-04T18:35:17.059Z,1.60
2023-01-04T18:37:46.550Z,3.10
2023-01-04T18:40:14.950Z,1.80
2023-01-04T18:42:47.953Z,1.50
2023-01-04T18:45:18.720Z,1.20
2023-01-04T18:47:48.442Z,1.37
2023-01-04T18:50:17.330Z,1.23
2023-01-04T18:52:45.567Z,1.97
2023-01-04T18:55:13.894Z,1.60
2023-01-04T18:57:42.155Z,0.80
2023-01-04T19:00:11.842Z,1.30
2023-01-04T19:02:41.603Z,1.40
2023-01-04T19:05:11.301Z,1.67
2023-01-04T19:07:40.669Z,1.40
2023-01-04T19:10:10.037Z,1.30
2023-01-04T19:12:38.980Z,0.90
2023-01-04T19:15:09.231Z,1.20
2023-01-04T19:17:37.485Z,0.70
2023-01-04T19:20:08.851Z,0.90
2023-01-04T19:22:37.168Z,2.10
2023-01-04T19:25:06.249Z,0.90
2023-01-04T19:27:35.150Z,1.10
2023-01-04T19:30:03.447Z,1.10
2023-01-04T19:32:33.583Z,0.87
2023-01-04T19:35:02.399Z,1.20
2023-01-04T19:37:32.025Z,1.27
2023-01-04T19:40:00.723Z,0.90
2023-01-04T19:42:28.973Z,0.80
2023-01-04T19:44:57.208Z,1.00
2023-01-04T19:47:25.427Z,1.40
2023-01-04T19:49:53.699Z,1.60
2023-01-04T19:52:22.047Z,1.30
2023-01-04T19:54:51.979Z,3.50
2023-01-04T19:57:20.225Z,2.00
2023-01-04T19:59:48.444Z,1.03
2023-01-04T20:02:16.842Z,1.10
2023-01-04T20:04:45.296Z,0.90
2023-01-04T20:07:13.903Z,1.20
2023-01-04T20:09:42.400Z,1.13
2023-01-04T20:12:12.226Z,1.33
2023-01-04T20:14:40.532Z,1.27
2023-01-04T20:17:08.850Z,1.40
2023-01-04T20:19:37.356Z,2.17
2023-01-04T20:22:05.808Z,1.30
2023-01-04T20:24:34.339Z,1.37
2023-01-04T20:27:02.697Z,1.37
2023-01-04T20:29:33.304Z,1.00
2023-01-04T20:32:03.461Z,1.13
2023-01-04T20:34:31.959Z,1.07
2023-01-04T20:37:00.528Z,1.43
2023-01-04T20:39:29.187Z,1.03
2023-01-04T20:42:14.733Z,1.37
2023-01-04T20:44:44.393Z,1.23
2023-01-04T20:47:12.657Z,1.07
2023-01-04T20:49:40.805Z,0.90
2023-01-04T20:52:09.268Z,1.03
2023-01-04T20:54:37.508Z,1.30
2023-01-04T20:57:05.760Z,1.20
2023-01-04T20:59:34.275Z,1.00
2023-01-04T21:02:04.955Z,1.60
2023-01-04T21:04:33.544Z,0.90
2023-01-04T21:07:01.717Z,1.97
2023-01-04T21:09:30.327Z,1.40
2023-01-04T21:12:04.960Z,1.13
2023-01-04T21:14:38.066Z,0.70
2023-01-04T21:17:07.728Z,0.93
2023-01-04T21:19:35.937Z,1.47
2023-01-04T21:22:04.437Z,1.27
2023-01-04T21:24:33.235Z,1.20
2023-01-04T21:27:01.804Z,0.83
2023-01-04T21:29:30.335Z,0.73
2023-01-04T21:31:58.927Z,0.63
2023-01-04T21:34:31.563Z,1.10
2023-01-04T21:37:00.215Z,0.60
2023-01-04T21:39:28.350Z,0.70
2023-01-04T21:41:56.706Z,0.90
2023-01-04T21:44:24.861Z,0.93
2023-01-04T21:46:53.139Z,0.53
2023-01-04T21:49:21.275Z,0.50
2023-01-04T21:51:51.028Z,0.70
2023-01-04T21:54:19.354Z,0.63
2023-01-04T21:56:47.706Z,0.80
2023-01-04T21:59:16.095Z,0.70
2023-01-04T22:01:44.713Z,0.80
2023-01-04T22:04:13.003Z,1.03
2023-01-04T22:06:41.645Z,0.60
2023-01-04T22:09:11.237Z,0.80
2023-01-04T22:11:40.919Z,0.80
2023-01-04T22:14:09.184Z,0.80
2023-01-04T22:16:37.326Z,0.70
2023-01-04T22:19:05.501Z,0.70
2023-01-04T22:21:33.726Z,0.70
2023-01-04T22:24:02.079Z,0.93
2023-01-04T22:26:31.694Z,0.60
2023-01-04T22:28:59.910Z,0.60
2023-01-04T22:31:28.227Z,0.60
2023-01-04T22:33:56.663Z,0.53
2023-01-04T22:36:24.971Z,0.77
2023-01-04T22:38:53.516Z,0.60
2023-01-04T22:41:23.580Z,0.60
2023-01-04T22:43:57.736Z,0.70
2023-01-04T22:46:27.112Z,0.60
2023-01-04T22:48:55.453Z,0.70
2023-01-04T22:51:25.947Z,0.50
2023-01-04T22:53:55.258Z,0.70
2023-01-04T22:56:23.715Z,0.53
2023-01-04T22:58:55.239Z,0.47
2023-01-04T23:01:28.248Z,0.80
2023-01-04T23:03:57.980Z,0.60
2023-01-04T23:06:27.936Z,0.60
2023-01-04T23:08:57.811Z,0.50
2023-01-04T23:11:27.293Z,0.50
2023-01-04T23:13:55.886Z,0.60
2023-01-04T23:16:31.789Z,0.77
2023-01-04T23:19:01.667Z,0.80
2023-01-04T23:21:29.999Z,0.50
2023-01-04T23:23:58.774Z,0.67
2023-01-04T23:26:28.513Z,0.50
2023-01-04T23:28:57.101Z,0.70
2023-01-04T23:31:28.360Z,0.60
2023-01-04T23:33:58.700Z,0.77
2023-01-04T23:36:29.331Z,0.50
2023-01-04T23:38:59.349Z,0.70
2023-01-04T23:41:42.404Z,0.57
2023-01-04T23:44:13.237Z,0.63
2023-01-04T23:46:43.547Z,0.50
2023-01-04T23:49:12.007Z,0.63
2023-01-04T23:51:40.453Z,0.50
2023-01-04T23:54:09.074Z,0.60
2023-01-04T23:56:37.797Z,0.60
2023-01-04T23:59:06.584Z,0.60
